OA51 weather

Fighter Field Airport
Watkins, Ohio, United States

Public forecast

Using degrees Fahrenheit for public forecast. Weather courtesy of forecast.io.

Closest aviation weather report (METAR) to Fighter Field Airport

Closest report is Union County Airport, 5.7 nm (10.6 km) W. Retrieved 2020/06/05 22:39 UTC (10 minutes ago):

KMRT 052239Z AUTO 30006KT 10SM CLR 29/15 A2988 RMK AO1

Closest aviation forecast (TAF) to Fighter Field Airport

Closest forecast is John Glenn Columbus International Airport, 19.9 nm (36.8 km) SE. Retrieved 2020/06/05 18:48 UTC (4 hours ago):

TAF KCMH 051745Z 0518/0618 VRB03KT P6SM SCT035 BKN250 FM061200 33007KT P6SM FEW040